Impacts TAF Board
For situational awareness. Not to be used for flight planning purposes.
IDs:

KSLC - Salt Lake City Intl, UT, US

Issued at 1120 UTC 16 Sep 2019
Updated at 1206 UTC 16 Sep 2019
Potential Impact None Slight Moderate High
Time<<17/01Z 17/02Z 17/03Z 17/04Z 17/05Z 17/06Z 17/07Z 17/08Z 17/09Z 17/10Z 17/11Z 17/12Z 17/13Z>>
Type PRVL PRVL PRVL PRVL PRVL PRVL PRVL PRVL PRVL PRVL PRVL PRVL PRVL
VIS >6 >6 >6 >6 >6 >6 >6 >6 >6 >6 >6 >6 >6
CIG 120 120 120 120 120 80 80 80 80 80 80 120 120
Cover BKN BKN BKN BKN BKN BKN BKN BKN BKN BKN BKN BKN BKN
FltCat VFR VFR VFR VFR VFR VFR VFR VFR VFR VFR VFR VFR VFR
WX -- -- -- -- -- VCSH VCSH VCSH VCSH VCSH VCSH -- --
WDir 180 180 180 180 180 330 330 330 330 330 330 320 320
WSpd 25 25 25 25 25 15 15 15 15 15 15 8 8
WGst 35 35 35 35 35 25 25 25 25 25 25 -- --
Raw TAF
KSLC 161120Z 1612/1718 15011KT P6SM SCT200
  FM161400 16018G28KT P6SM SCT120
  FM161800 18025G35KT P6SM SCT080 BKN120
  FM170600 33015G25KT P6SM VCSH SCT040 BKN080
  FM171200 32008KT P6SM SCT080 BKN120


METAR Board
Radar Display
Forecast Discussion
For situational awareness. Not to be used for flight planning purposes.